createdAt,value
2022-10-05T00:01:32.300Z,6.40
2022-10-05T00:04:03.230Z,6.67
2022-10-05T00:06:31.178Z,6.70
2022-10-05T00:08:58.976Z,7.10
2022-10-05T00:11:26.982Z,7.03
2022-10-05T00:13:54.658Z,7.27
2022-10-05T00:16:22.311Z,6.90
2022-10-05T00:18:52.150Z,6.80
2022-10-05T00:21:21.020Z,7.00
2022-10-05T00:23:48.804Z,6.17
2022-10-05T00:26:19.603Z,6.90
2022-10-05T00:28:47.569Z,7.13
2022-10-05T00:31:17.776Z,5.83
2022-10-05T00:33:45.863Z,6.50
2022-10-05T00:36:15.131Z,6.40
2022-10-05T00:38:43.064Z,6.90
2022-10-05T00:41:12.963Z,6.87
2022-10-05T00:43:52.881Z,6.77
2022-10-05T00:46:23.733Z,6.60
2022-10-05T00:49:01.101Z,6.10
2022-10-05T00:51:31.579Z,5.50
2022-10-05T00:54:12.537Z,5.93
2022-10-05T00:56:50.405Z,6.47
2022-10-05T00:59:24.987Z,5.97
2022-10-05T01:01:58.830Z,5.60
2022-10-05T01:04:30.088Z,5.40
2022-10-05T01:07:05.282Z,5.67
2022-10-05T01:09:35.607Z,6.13
2022-10-05T01:12:07.839Z,5.90
2022-10-05T01:14:38.881Z,5.63
2022-10-05T01:17:12.106Z,6.53
2022-10-05T01:19:52.105Z,5.77
2022-10-05T01:22:27.872Z,4.70
2022-10-05T01:25:03.752Z,5.30
2022-10-05T01:27:39.916Z,6.03
2022-10-05T01:30:09.554Z,6.13
2022-10-05T01:32:43.365Z,5.40
2022-10-05T01:35:17.041Z,6.33
2022-10-05T01:37:50.175Z,6.53
2022-10-05T01:40:21.557Z,6.23
2022-10-05T01:42:57.227Z,6.00
2022-10-05T01:45:27.436Z,6.00
2022-10-05T01:47:59.067Z,6.27
2022-10-05T01:50:29.379Z,6.10
2022-10-05T01:53:03.912Z,6.17
2022-10-05T01:55:34.473Z,6.40
2022-10-05T01:58:11.502Z,6.30
2022-10-05T02:00:44.609Z,6.00
2022-10-05T02:03:15.039Z,6.03
2022-10-05T02:05:45.494Z,5.60
2022-10-05T02:08:16.022Z,5.87
2022-10-05T02:10:47.023Z,5.90
2022-10-05T02:13:17.814Z,5.97
2022-10-05T02:15:46.124Z,5.40
2022-10-05T02:18:17.258Z,5.90
2022-10-05T02:20:47.350Z,5.90
2022-10-05T02:23:18.684Z,5.63
2022-10-05T02:25:48.312Z,5.53
2022-10-05T02:28:22.083Z,5.40
2022-10-05T02:30:52.104Z,5.90
2022-10-05T02:33:24.416Z,5.40
2022-10-05T02:35:53.868Z,6.00
2022-10-05T02:38:26.179Z,5.23
2022-10-05T02:40:58.481Z,5.30
2022-10-05T02:43:31.088Z,5.87
2022-10-05T02:46:02.201Z,5.50
2022-10-05T02:48:33.817Z,5.07
2022-10-05T02:51:05.333Z,5.90
2022-10-05T02:53:36.991Z,5.97
2022-10-05T02:56:11.161Z,5.63
2022-10-05T02:58:43.315Z,5.23
2022-10-05T03:01:14.943Z,5.77
2022-10-05T03:03:44.450Z,6.07
2022-10-05T03:06:16.476Z,6.10
2022-10-05T03:08:46.278Z,6.17
2022-10-05T03:11:19.602Z,6.30
2022-10-05T03:13:53.586Z,6.20
2022-10-05T03:16:35.854Z,6.30
2022-10-05T03:19:13.011Z,5.93
2022-10-05T03:21:48.688Z,6.27
2022-10-05T03:24:27.294Z,6.27
2022-10-05T03:26:58.048Z,6.23
2022-10-05T03:29:30.467Z,6.50
2022-10-05T03:32:01.565Z,6.40
2022-10-05T03:34:33.246Z,6.33
2022-10-05T03:37:04.587Z,6.20
2022-10-05T03:39:35.618Z,5.53
2022-10-05T03:42:09.539Z,6.70
2022-10-05T03:44:41.055Z,7.00
2022-10-05T03:47:18.041Z,6.17
2022-10-05T03:49:50.776Z,5.97
2022-10-05T03:52:19.775Z,5.60
2022-10-05T03:54:50.107Z,6.20
2022-10-05T03:57:19.945Z,5.67
2022-10-05T03:59:53.391Z,6.27
2022-10-05T04:02:25.739Z,5.77
2022-10-05T04:04:56.687Z,5.67
2022-10-05T04:07:28.866Z,5.50
2022-10-05T04:09:56.850Z,5.13
2022-10-05T04:12:26.630Z,5.90
2022-10-05T04:14:59.287Z,6.47
2022-10-05T04:17:32.606Z,5.10
2022-10-05T04:20:03.316Z,5.13
2022-10-05T04:22:32.851Z,5.50
2022-10-05T04:25:03.661Z,5.17
2022-10-05T04:27:34.407Z,5.60
2022-10-05T04:30:05.586Z,5.77
2022-10-05T04:32:37.114Z,5.50
2022-10-05T04:35:12.074Z,6.20
2022-10-05T04:37:46.952Z,5.60
2022-10-05T04:40:22.297Z,5.97
2022-10-05T04:42:57.996Z,5.83
2022-10-05T04:45:33.131Z,6.40
2022-10-05T04:48:11.985Z,7.27
2022-10-05T04:50:47.767Z,5.97
2022-10-05T04:53:21.886Z,6.00
2022-10-05T04:55:54.139Z,7.07
2022-10-05T04:58:27.480Z,6.40
2022-10-05T05:01:02.956Z,6.80
2022-10-05T05:03:47.531Z,5.67
2022-10-05T05:06:22.743Z,6.70
2022-10-05T05:09:05.851Z,6.03
2022-10-05T05:11:35.715Z,6.20
2022-10-05T05:14:12.243Z,6.67
2022-10-05T05:16:42.606Z,6.73
2022-10-05T05:19:17.880Z,7.63
2022-10-05T05:21:50.537Z,6.80
2022-10-05T05:24:21.431Z,6.47
2022-10-05T05:26:54.068Z,6.20
2022-10-05T05:29:24.397Z,5.90
2022-10-05T05:31:58.473Z,5.77
2022-10-05T05:34:34.462Z,6.67
2022-10-05T05:37:05.957Z,4.90
2022-10-05T05:39:40.377Z,6.33
2022-10-05T05:42:17.832Z,6.00
2022-10-05T05:44:48.806Z,5.87
2022-10-05T05:47:20.820Z,6.17
2022-10-05T05:50:05.583Z,5.50
2022-10-05T05:52:37.176Z,5.83
2022-10-05T05:55:08.745Z,5.57
2022-10-05T05:57:40.018Z,5.60
2022-10-05T06:00:12.104Z,6.30
2022-10-05T06:02:54.194Z,5.93
2022-10-05T06:05:28.400Z,6.30
2022-10-05T06:07:59.259Z,5.63
2022-10-05T06:10:30.487Z,5.70
2022-10-05T06:13:06.238Z,5.20
2022-10-05T06:15:35.507Z,5.83
2022-10-05T06:18:08.296Z,5.70
2022-10-05T06:20:37.883Z,5.60
2022-10-05T06:23:07.161Z,6.00
2022-10-05T06:25:38.644Z,5.60
2022-10-05T06:28:10.407Z,5.27
2022-10-05T06:30:46.520Z,5.30
2022-10-05T06:33:20.956Z,4.90
2022-10-05T06:35:56.286Z,4.83
2022-10-05T06:38:39.307Z,5.10
2022-10-05T06:41:11.790Z,5.20
2022-10-05T06:43:44.817Z,5.47
2022-10-05T06:46:32.391Z,5.07
2022-10-05T06:49:19.586Z,5.00
2022-10-05T06:52:13.756Z,5.63
2022-10-05T06:54:47.448Z,5.43
2022-10-05T06:57:25.356Z,5.13
2022-10-05T06:59:58.266Z,4.90
2022-10-05T07:02:30.447Z,5.17
2022-10-05T07:05:12.762Z,5.10
2022-10-05T07:07:44.867Z,4.97
2022-10-05T07:10:18.474Z,4.63
2022-10-05T07:12:53.756Z,4.47
2022-10-05T07:15:29.491Z,4.90
2022-10-05T07:18:04.314Z,5.13
2022-10-05T07:20:34.361Z,4.50
2022-10-05T07:23:12.863Z,4.97
2022-10-05T07:25:43.707Z,4.33
2022-10-05T07:28:14.795Z,5.60
2022-10-05T07:30:46.447Z,5.10
2022-10-05T07:33:17.348Z,5.70
2022-10-05T07:36:08.137Z,4.53
2022-10-05T07:38:39.211Z,4.77
2022-10-05T07:41:08.993Z,4.73
2022-10-05T07:44:01.441Z,4.60
2022-10-05T07:46:38.629Z,4.40
2022-10-05T07:49:10.801Z,4.07
2022-10-05T07:51:41.322Z,4.40
2022-10-05T07:54:17.682Z,3.77
2022-10-05T07:56:46.764Z,3.97
2022-10-05T07:59:17.979Z,4.37
2022-10-05T08:01:47.967Z,4.33
2022-10-05T08:04:18.817Z,4.60
2022-10-05T08:06:52.153Z,4.67
2022-10-05T08:09:32.960Z,4.13
2022-10-05T08:12:04.903Z,3.97
2022-10-05T08:14:39.585Z,3.67
2022-10-05T08:17:12.211Z,4.47
2022-10-05T08:19:42.635Z,4.20
2022-10-05T08:22:13.630Z,4.50
2022-10-05T08:24:43.300Z,4.87
2022-10-05T08:27:13.931Z,4.33
2022-10-05T08:29:43.464Z,5.27
2022-10-05T08:32:13.436Z,5.13
2022-10-05T08:34:45.824Z,4.20
2022-10-05T08:37:18.426Z,4.97
2022-10-05T08:39:50.633Z,4.60
2022-10-05T08:42:36.047Z,5.33
2022-10-05T08:45:15.895Z,4.70
2022-10-05T08:47:57.446Z,4.83
2022-10-05T08:50:44.328Z,4.47
2022-10-05T08:53:28.609Z,4.20
2022-10-05T08:56:11.301Z,5.40
2022-10-05T08:58:54.143Z,5.07
2022-10-05T09:01:23.812Z,4.70
2022-10-05T09:04:22.622Z,6.80
2022-10-05T09:07:02.809Z,4.93
2022-10-05T09:09:50.799Z,4.37
2022-10-05T09:12:41.024Z,4.40
2022-10-05T09:15:26.818Z,4.90
2022-10-05T09:18:12.850Z,4.70
2022-10-05T09:20:48.583Z,4.27
2022-10-05T09:23:25.849Z,4.50
2022-10-05T09:25:58.640Z,4.13
2022-10-05T09:28:30.223Z,4.70
2022-10-05T09:30:59.490Z,5.27
2022-10-05T09:33:34.746Z,5.80
2022-10-05T09:36:15.509Z,4.90
2022-10-05T09:39:01.863Z,7.33
2022-10-05T09:41:44.098Z,7.20
2022-10-05T09:44:40.501Z,4.57
2022-10-05T09:47:29.450Z,4.00
2022-10-05T09:50:14.943Z,4.37
2022-10-05T09:52:54.687Z,4.57
2022-10-05T09:55:32.546Z,4.47
2022-10-05T09:58:06.643Z,4.40
2022-10-05T10:00:50.122Z,4.20
2022-10-05T10:03:49.677Z,4.20
2022-10-05T10:06:28.848Z,4.10
2022-10-05T10:09:15.487Z,4.80
2022-10-05T10:11:50.415Z,4.43
2022-10-05T10:14:30.186Z,4.90
2022-10-05T10:17:04.070Z,4.53
2022-10-05T10:19:44.150Z,4.77
2022-10-05T10:22:21.465Z,4.70
2022-10-05T10:25:07.867Z,4.30
2022-10-05T10:27:39.689Z,4.57
2022-10-05T10:30:19.525Z,4.53
2022-10-05T10:33:11.435Z,5.20
2022-10-05T10:35:40.857Z,4.67
2022-10-05T10:38:24.674Z,4.90
2022-10-05T10:41:22.529Z,5.20
2022-10-05T10:43:56.565Z,5.10
2022-10-05T10:46:31.081Z,4.90
2022-10-05T10:49:06.142Z,5.50
2022-10-05T10:51:45.346Z,5.00
2022-10-05T10:54:24.838Z,5.00
2022-10-05T10:56:55.995Z,4.50
2022-10-05T10:59:37.515Z,4.67
2022-10-05T11:02:16.160Z,5.03
2022-10-05T11:04:54.013Z,4.43
2022-10-05T11:07:40.427Z,4.50
2022-10-05T11:10:18.593Z,4.13
2022-10-05T11:12:58.893Z,5.70
2022-10-05T11:15:35.099Z,4.43
2022-10-05T11:18:17.480Z,5.00
2022-10-05T11:21:15.498Z,4.47
2022-10-05T11:23:53.175Z,4.77
2022-10-05T11:26:27.603Z,4.97
2022-10-05T11:29:08.764Z,5.67
2022-10-05T11:31:40.578Z,6.07
2022-10-05T11:34:26.181Z,4.90
2022-10-05T11:37:13.290Z,5.10
2022-10-05T11:39:55.674Z,5.47
2022-10-05T11:42:52.236Z,5.13
2022-10-05T11:45:21.887Z,5.17
2022-10-05T11:48:00.784Z,4.43
2022-10-05T11:50:33.379Z,4.83
2022-10-05T11:53:03.066Z,5.80
2022-10-05T11:55:36.328Z,5.23
2022-10-05T11:58:07.977Z,5.50
2022-10-05T12:00:40.658Z,5.63
2022-10-05T12:03:32.260Z,5.40
2022-10-05T12:06:08.271Z,5.47
2022-10-05T12:08:39.624Z,5.00
2022-10-05T12:11:15.021Z,5.70
2022-10-05T12:13:48.053Z,5.20
2022-10-05T12:16:18.503Z,4.70
2022-10-05T12:18:57.134Z,4.30
2022-10-05T12:21:32.882Z,4.70
2022-10-05T12:24:03.260Z,24.97
2022-10-05T12:26:34.147Z,21.30
2022-10-05T12:29:03.174Z,7.63
2022-10-05T12:31:36.929Z,5.43
2022-10-05T12:34:11.249Z,6.50
2022-10-05T12:37:02.883Z,4.40
2022-10-05T12:39:37.961Z,5.00
2022-10-05T12:42:14.383Z,9.43
2022-10-05T12:45:10.120Z,10.67
2022-10-05T12:47:45.233Z,5.93
2022-10-05T12:50:20.302Z,10.23
2022-10-05T12:52:56.306Z,6.27
2022-10-05T12:55:27.023Z,8.53
2022-10-05T12:58:00.668Z,5.13
2022-10-05T13:00:32.135Z,3.50
2022-10-05T13:03:01.161Z,5.70
2022-10-05T13:05:31.899Z,7.73
2022-10-05T13:08:08.831Z,5.70
2022-10-05T13:10:38.201Z,12.20
2022-10-05T13:13:14.002Z,5.93
2022-10-05T13:15:47.809Z,5.60
2022-10-05T13:18:19.748Z,10.87
2022-10-05T13:20:50.926Z,4.00
2022-10-05T13:23:22.623Z,4.17
2022-10-05T13:25:53.148Z,5.60
2022-10-05T13:28:23.226Z,4.57
2022-10-05T13:30:52.519Z,3.57
2022-10-05T13:33:23.299Z,3.90
2022-10-05T13:35:53.961Z,3.37
2022-10-05T13:42:38.827Z,7.73
2022-10-05T13:45:14.144Z,8.50
2022-10-05T13:47:46.516Z,3.30
2022-10-05T13:50:16.988Z,4.03
2022-10-05T13:52:48.816Z,3.40
2022-10-05T13:55:23.688Z,3.20
2022-10-05T13:57:57.951Z,4.23
2022-10-05T14:00:27.448Z,3.90
2022-10-05T14:02:56.405Z,5.27
2022-10-05T14:05:25.516Z,4.10
2022-10-05T14:07:54.327Z,4.00
2022-10-05T14:10:36.599Z,4.13
2022-10-05T14:13:18.826Z,3.57
2022-10-05T14:15:59.579Z,4.00
2022-10-05T14:18:28.496Z,3.37
2022-10-05T14:20:59.617Z,4.30
2022-10-05T14:23:27.867Z,3.90
2022-10-05T14:25:55.428Z,3.77
2022-10-05T14:28:25.989Z,4.07
2022-10-05T14:30:59.797Z,4.97
2022-10-05T14:33:28.773Z,4.27
2022-10-05T14:35:57.103Z,5.27
2022-10-05T14:38:29.354Z,4.40
2022-10-05T14:41:13.264Z,4.60
2022-10-05T14:43:49.783Z,4.70
2022-10-05T14:46:25.400Z,4.17
2022-10-05T14:49:11.835Z,4.40
2022-10-05T14:51:41.859Z,4.60
2022-10-05T14:54:25.190Z,4.73
2022-10-05T14:56:55.521Z,4.20
2022-10-05T14:59:33.130Z,4.40
2022-10-05T15:02:21.054Z,4.20
2022-10-05T15:04:56.261Z,4.80
2022-10-05T15:07:24.973Z,4.50
2022-10-05T15:10:02.801Z,4.40
2022-10-05T15:12:33.026Z,4.23
2022-10-05T15:15:03.974Z,4.23
2022-10-05T15:17:35.671Z,4.00
2022-10-05T15:20:05.461Z,4.17
2022-10-05T15:22:40.634Z,4.30
2022-10-05T15:25:12.407Z,4.10
2022-10-05T15:27:49.146Z,4.00
2022-10-05T15:30:18.458Z,4.30
2022-10-05T15:32:55.335Z,3.77
2022-10-05T15:35:42.233Z,3.80
2022-10-05T15:38:17.726Z,4.00
2022-10-05T15:40:47.666Z,5.00
2022-10-05T15:43:17.352Z,4.10
2022-10-05T15:45:52.963Z,8.37
2022-10-05T15:48:25.323Z,4.00
2022-10-05T15:50:57.050Z,4.20
2022-10-05T15:53:28.183Z,5.00
2022-10-05T15:55:57.383Z,4.77
2022-10-05T15:58:44.236Z,4.30
2022-10-05T16:01:13.759Z,4.77
2022-10-05T16:03:48.958Z,4.70
2022-10-05T16:06:38.778Z,5.07
2022-10-05T16:09:15.877Z,4.37
2022-10-05T16:11:52.609Z,4.93
2022-10-05T16:14:29.291Z,4.73
2022-10-05T16:17:03.702Z,5.37
2022-10-05T16:19:38.003Z,4.57
2022-10-05T16:22:12.430Z,4.93
2022-10-05T16:24:51.929Z,5.60
2022-10-05T16:27:24.596Z,5.47
2022-10-05T16:29:55.857Z,5.13
2022-10-05T16:32:30.339Z,5.90
2022-10-05T16:35:05.280Z,5.10
2022-10-05T16:37:37.977Z,5.00
2022-10-05T16:40:09.756Z,5.40
2022-10-05T16:42:49.923Z,5.37
2022-10-05T16:45:23.645Z,6.17
2022-10-05T16:47:54.783Z,5.43
2022-10-05T16:50:25.654Z,5.30
2022-10-05T16:52:57.106Z,5.90
2022-10-05T16:55:30.566Z,5.90
2022-10-05T16:57:59.734Z,5.90
2022-10-05T17:00:30.409Z,5.60
2022-10-05T17:03:05.615Z,6.73
2022-10-05T17:05:44.855Z,6.73
2022-10-05T17:08:26.700Z,6.50
2022-10-05T17:10:58.167Z,6.70
2022-10-05T17:13:43.692Z,6.50
2022-10-05T17:16:15.841Z,5.97
2022-10-05T17:18:57.594Z,7.00
2022-10-05T17:21:28.310Z,7.50
2022-10-05T17:23:59.045Z,8.40
2022-10-05T17:26:44.872Z,8.43
2022-10-05T17:29:15.310Z,9.07
2022-10-05T17:32:10.662Z,8.90
2022-10-05T17:34:39.114Z,8.20
2022-10-05T17:37:18.465Z,7.90
2022-10-05T17:39:48.054Z,8.57
2022-10-05T17:42:47.249Z,8.80
2022-10-05T17:45:33.955Z,22.13
2022-10-05T17:48:03.095Z,14.70
2022-10-05T17:50:59.242Z,9.47
2022-10-05T17:53:55.053Z,7.67
2022-10-05T17:56:23.601Z,13.33
2022-10-05T17:58:59.881Z,8.20
2022-10-05T18:01:30.352Z,10.87
2022-10-05T18:04:19.209Z,10.27
2022-10-05T18:06:48.868Z,9.00
2022-10-05T18:09:30.657Z,10.90
2022-10-05T18:12:20.579Z,22.73
2022-10-05T18:14:54.234Z,9.57
2022-10-05T18:17:36.659Z,10.77
2022-10-05T18:20:22.433Z,10.37
2022-10-05T18:22:52.829Z,12.27
2022-10-05T18:25:25.858Z,11.80
2022-10-05T18:28:05.484Z,10.50
2022-10-05T18:30:38.268Z,9.97
2022-10-05T18:33:20.863Z,10.20
2022-10-05T18:35:57.079Z,11.03
2022-10-05T18:38:32.354Z,9.10
2022-10-05T18:41:04.435Z,9.10
2022-10-05T18:43:39.177Z,9.47
2022-10-05T18:46:12.096Z,9.30
2022-10-05T18:48:47.079Z,9.00
2022-10-05T18:51:18.575Z,9.13
2022-10-05T18:53:55.563Z,8.13
2022-10-05T18:56:26.911Z,8.27
2022-10-05T18:59:02.840Z,7.90
2022-10-05T19:01:39.321Z,9.37
2022-10-05T19:04:14.866Z,8.50
2022-10-05T19:06:45.309Z,9.37
2022-10-05T19:09:19.614Z,8.00
2022-10-05T19:11:51.591Z,8.70
2022-10-05T19:14:25.920Z,8.03
2022-10-05T19:17:02.777Z,9.77
2022-10-05T19:19:37.019Z,7.70
2022-10-05T19:22:07.756Z,7.47
2022-10-05T19:24:42.637Z,8.73
2022-10-05T19:27:15.648Z,8.20
2022-10-05T19:29:53.657Z,8.00
2022-10-05T19:32:27.034Z,7.13
2022-10-05T19:37:59.373Z,6.73
2022-10-05T19:40:30.667Z,6.73
2022-10-05T19:43:07.729Z,6.50
2022-10-05T19:45:39.576Z,6.93
2022-10-05T19:48:14.315Z,6.47
2022-10-05T19:50:52.707Z,6.73
2022-10-05T19:53:25.756Z,7.57
2022-10-05T19:55:54.208Z,6.47
2022-10-05T19:58:24.152Z,7.50
2022-10-05T20:00:56.476Z,8.30
2022-10-05T20:03:27.605Z,7.13
2022-10-05T20:05:56.319Z,7.00
2022-10-05T20:08:27.063Z,6.63
2022-10-05T20:11:05.101Z,7.67
2022-10-05T20:13:39.050Z,7.53
2022-10-05T20:16:25.650Z,7.60
2022-10-05T20:19:11.011Z,8.17
2022-10-05T20:21:46.564Z,6.60
2022-10-05T20:24:15.191Z,7.73
2022-10-05T20:27:02.351Z,7.10
2022-10-05T20:29:32.103Z,6.70
2022-10-05T20:32:00.169Z,7.13
2022-10-05T20:34:28.044Z,6.60
2022-10-05T20:36:55.673Z,6.63
2022-10-05T20:39:23.257Z,6.70
2022-10-05T20:41:51.132Z,5.50
2022-10-05T20:44:18.652Z,7.87
2022-10-05T20:46:48.182Z,7.73
2022-10-05T20:49:15.743Z,7.33
2022-10-05T20:52:06.350Z,6.93
2022-10-05T20:54:34.024Z,7.23
2022-10-05T20:57:02.480Z,6.80
2022-10-05T20:59:29.967Z,6.20
2022-10-05T21:01:59.233Z,6.07
2022-10-05T21:04:30.221Z,6.67
2022-10-05T21:07:02.803Z,5.67
2022-10-05T21:09:30.578Z,5.50
2022-10-05T21:11:58.202Z,5.83
2022-10-05T21:14:28.231Z,6.20
2022-10-05T21:16:55.818Z,6.90
2022-10-05T21:19:24.643Z,6.43
2022-10-05T21:21:52.659Z,5.67
2022-10-05T21:24:20.117Z,5.97
2022-10-05T21:26:47.849Z,6.20
2022-10-05T21:29:15.482Z,5.30
2022-10-05T21:31:43.099Z,5.93
2022-10-05T21:34:10.611Z,5.87
2022-10-05T21:36:39.890Z,5.77
2022-10-05T21:39:07.391Z,5.60
2022-10-05T21:41:35.058Z,6.43
2022-10-05T21:44:03.190Z,6.20
2022-10-05T21:46:31.518Z,5.83
2022-10-05T21:48:59.089Z,4.90
2022-10-05T21:51:27.062Z,5.53
2022-10-05T21:53:57.555Z,5.23
2022-10-05T21:56:29.026Z,5.30
2022-10-05T21:58:56.701Z,4.70
2022-10-05T22:01:24.282Z,5.93
2022-10-05T22:03:54.177Z,4.90
2022-10-05T22:06:21.645Z,4.90
2022-10-05T22:08:49.166Z,4.60
2022-10-05T22:11:18.851Z,5.10
2022-10-05T22:13:47.215Z,5.27
2022-10-05T22:16:17.264Z,5.33
2022-10-05T22:18:45.134Z,4.63
2022-10-05T22:21:13.905Z,5.70
2022-10-05T22:23:42.047Z,5.40
2022-10-05T22:26:10.762Z,5.10
2022-10-05T22:28:40.606Z,5.70
2022-10-05T22:31:10.093Z,5.47
2022-10-05T22:33:37.924Z,5.10
2022-10-05T22:36:06.413Z,5.40
2022-10-05T22:38:34.132Z,4.90
2022-10-05T22:41:01.774Z,4.97
2022-10-05T22:43:29.613Z,4.30
2022-10-05T22:45:59.671Z,6.70
2022-10-05T22:48:27.529Z,5.47
2022-10-05T22:50:55.223Z,4.93
2022-10-05T22:53:23.239Z,4.47
2022-10-05T22:55:50.984Z,5.97
2022-10-05T22:58:19.025Z,5.77
2022-10-05T23:00:57.998Z,5.33
2022-10-05T23:03:28.364Z,5.80
2022-10-05T23:06:00.386Z,5.60
2022-10-05T23:08:28.362Z,5.77
2022-10-05T23:11:00.868Z,5.97
2022-10-05T23:13:28.804Z,6.27
2022-10-05T23:15:56.461Z,5.47
2022-10-05T23:18:25.179Z,6.27
2022-10-05T23:20:57.451Z,5.60
2022-10-05T23:23:26.776Z,5.87
2022-10-05T23:25:54.733Z,5.03
2022-10-05T23:28:22.644Z,5.60
2022-10-05T23:30:50.686Z,5.27
2022-10-05T23:33:18.689Z,5.53
2022-10-05T23:35:46.386Z,5.70
2022-10-05T23:38:15.891Z,5.40
2022-10-05T23:40:47.351Z,6.07
2022-10-05T23:43:15.314Z,5.20
2022-10-05T23:45:44.762Z,6.03
2022-10-05T23:48:12.820Z,5.50
2022-10-05T23:50:40.596Z,5.33
2022-10-05T23:53:08.370Z,5.73
2022-10-05T23:55:37.343Z,5.53
2022-10-05T23:58:05.738Z,5.53
